sensor_id;sensor_type;location;lat;lon;timestamp;temperature;humidity
1760;DHT22;877;46.266;20.062;2023-07-28T00:01:25;16.10;73.10
1760;DHT22;877;46.266;20.062;2023-07-28T00:03:51;16.10;73.30
1760;DHT22;877;46.266;20.062;2023-07-28T00:06:17;16.10;73.40
1760;DHT22;877;46.266;20.062;2023-07-28T00:08:43;16.30;73.40
1760;DHT22;877;46.266;20.062;2023-07-28T00:11:10;16.50;72.50
1760;DHT22;877;46.266;20.062;2023-07-28T00:13:38;16.50;72.20
1760;DHT22;877;46.266;20.062;2023-07-28T00:16:04;16.60;73.10
1760;DHT22;877;46.266;20.062;2023-07-28T00:18:30;16.70;71.80
1760;DHT22;877;46.266;20.062;2023-07-28T00:20:56;16.60;72.70
1760;DHT22;877;46.266;20.062;2023-07-28T00:23:22;16.70;72.40
1760;DHT22;877;46.266;20.062;2023-07-28T00:25:48;16.60;72.50
1760;DHT22;877;46.266;20.062;2023-07-28T00:28:14;16.50;72.60
1760;DHT22;877;46.266;20.062;2023-07-28T00:30:40;16.20;74.10
1760;DHT22;877;46.266;20.062;2023-07-28T00:33:05;15.80;75.80
1760;DHT22;877;46.266;20.062;2023-07-28T00:35:32;15.70;76.40
1760;DHT22;877;46.266;20.062;2023-07-28T00:37:57;15.60;76.80
1760;DHT22;877;46.266;20.062;2023-07-28T00:40:24;15.40;78.00
1760;DHT22;877;46.266;20.062;2023-07-28T00:42:50;15.50;77.80
1760;DHT22;877;46.266;20.062;2023-07-28T00:45:15;15.70;77.30
1760;DHT22;877;46.266;20.062;2023-07-28T00:47:42;15.80;76.60
1760;DHT22;877;46.266;20.062;2023-07-28T00:50:09;15.90;76.20
1760;DHT22;877;46.266;20.062;2023-07-28T00:52:36;15.60;77.40
1760;DHT22;877;46.266;20.062;2023-07-28T00:55:02;15.70;77.70
1760;DHT22;877;46.266;20.062;2023-07-28T00:57:28;15.50;78.00
1760;DHT22;877;46.266;20.062;2023-07-28T00:59:54;15.60;78.10
1760;DHT22;877;46.266;20.062;2023-07-28T01:02:21;15.60;78.00
1760;DHT22;877;46.266;20.062;2023-07-28T01:04:48;15.80;77.70
1760;DHT22;877;46.266;20.062;2023-07-28T01:10:13;15.60;78.10
1760;DHT22;877;46.266;20.062;2023-07-28T01:12:40;15.70;77.80
1760;DHT22;877;46.266;20.062;2023-07-28T01:15:07;15.60;78.10
1760;DHT22;877;46.266;20.062;2023-07-28T01:17:33;15.40;79.20
1760;DHT22;877;46.266;20.062;2023-07-28T01:19:59;15.20;80.10
1760;DHT22;877;46.266;20.062;2023-07-28T01:22:45;15.20;80.00
1760;DHT22;877;46.266;20.062;2023-07-28T01:27:53;15.30;80.00
1760;DHT22;877;46.266;20.062;2023-07-28T01:30:19;15.30;80.00
1760;DHT22;877;46.266;20.062;2023-07-28T01:32:47;15.30;79.90
1760;DHT22;877;46.266;20.062;2023-07-28T01:35:14;15.30;80.10
1760;DHT22;877;46.266;20.062;2023-07-28T01:37:40;15.20;80.80
1760;DHT22;877;46.266;20.062;2023-07-28T01:40:06;15.30;80.50
1760;DHT22;877;46.266;20.062;2023-07-28T01:42:32;15.50;79.80
1760;DHT22;877;46.266;20.062;2023-07-28T01:44:58;15.60;79.20
1760;DHT22;877;46.266;20.062;2023-07-28T01:47:23;15.50;79.20
1760;DHT22;877;46.266;20.062;2023-07-28T01:49:51;15.30;80.00
1760;DHT22;877;46.266;20.062;2023-07-28T01:52:16;15.10;80.70
1760;DHT22;877;46.266;20.062;2023-07-28T01:54:42;15.00;81.50
1760;DHT22;877;46.266;20.062;2023-07-28T01:57:08;14.80;82.40
1760;DHT22;877;46.266;20.062;2023-07-28T01:59:33;14.90;81.80
1760;DHT22;877;46.266;20.062;2023-07-28T02:01:59;14.70;82.90
1760;DHT22;877;46.266;20.062;2023-07-28T02:04:25;14.90;82.30
1760;DHT22;877;46.266;20.062;2023-07-28T02:06:51;14.80;82.60
1760;DHT22;877;46.266;20.062;2023-07-28T02:09:17;14.80;82.60
1760;DHT22;877;46.266;20.062;2023-07-28T02:11:42;15.10;81.60
1760;DHT22;877;46.266;20.062;2023-07-28T02:14:08;14.90;82.00
1760;DHT22;877;46.266;20.062;2023-07-28T02:16:34;14.90;82.20
1760;DHT22;877;46.266;20.062;2023-07-28T02:19:00;14.90;82.40
1760;DHT22;877;46.266;20.062;2023-07-28T02:21:25;14.60;83.70
1760;DHT22;877;46.266;20.062;2023-07-28T02:23:53;14.50;84.30
1760;DHT22;877;46.266;20.062;2023-07-28T02:26:18;14.30;84.70
1760;DHT22;877;46.266;20.062;2023-07-28T02:28:44;14.50;84.50
1760;DHT22;877;46.266;20.062;2023-07-28T02:31:10;14.60;83.80
1760;DHT22;877;46.266;20.062;2023-07-28T02:33:36;14.40;84.10
1760;DHT22;877;46.266;20.062;2023-07-28T02:36:05;14.40;84.60
1760;DHT22;877;46.266;20.062;2023-07-28T02:38:31;14.40;84.20
1760;DHT22;877;46.266;20.062;2023-07-28T02:40:57;14.40;84.70
1760;DHT22;877;46.266;20.062;2023-07-28T02:43:23;14.50;84.10
1760;DHT22;877;46.266;20.062;2023-07-28T02:45:54;14.40;84.40
1760;DHT22;877;46.266;20.062;2023-07-28T02:48:21;14.40;84.70
1760;DHT22;877;46.266;20.062;2023-07-28T02:50:50;14.40;84.50
1760;DHT22;877;46.266;20.062;2023-07-28T02:53:16;14.50;84.00
1760;DHT22;877;46.266;20.062;2023-07-28T02:55:43;14.60;83.60
1760;DHT22;877;46.266;20.062;2023-07-28T02:58:12;14.60;83.60
1760;DHT22;877;46.266;20.062;2023-07-28T03:00:40;14.50;84.30
1760;DHT22;877;46.266;20.062;2023-07-28T03:03:08;14.40;84.70
1760;DHT22;877;46.266;20.062;2023-07-28T03:05:36;14.40;84.80
1760;DHT22;877;46.266;20.062;2023-07-28T03:08:03;14.40;84.80
1760;DHT22;877;46.266;20.062;2023-07-28T03:10:29;14.50;84.40
1760;DHT22;877;46.266;20.062;2023-07-28T03:12:55;14.60;83.80
1760;DHT22;877;46.266;20.062;2023-07-28T03:15:22;14.50;83.80
1760;DHT22;877;46.266;20.062;2023-07-28T03:17:48;14.60;83.90
1760;DHT22;877;46.266;20.062;2023-07-28T03:20:14;14.70;83.10
1760;DHT22;877;46.266;20.062;2023-07-28T03:22:40;14.90;82.70
1760;DHT22;877;46.266;20.062;2023-07-28T03:25:06;14.90;82.60
1760;DHT22;877;46.266;20.062;2023-07-28T03:27:32;14.90;82.50
1760;DHT22;877;46.266;20.062;2023-07-28T03:29:58;14.80;83.10
1760;DHT22;877;46.266;20.062;2023-07-28T03:32:24;14.70;83.40
1760;DHT22;877;46.266;20.062;2023-07-28T03:34:49;14.70;83.70
1760;DHT22;877;46.266;20.062;2023-07-28T03:37:15;14.80;83.20
1760;DHT22;877;46.266;20.062;2023-07-28T03:39:41;14.80;83.00
1760;DHT22;877;46.266;20.062;2023-07-28T03:42:07;15.00;82.20
1760;DHT22;877;46.266;20.062;2023-07-28T03:44:33;14.90;82.30
1760;DHT22;877;46.266;20.062;2023-07-28T03:47:00;14.90;82.50
1760;DHT22;877;46.266;20.062;2023-07-28T03:49:25;14.80;82.70
1760;DHT22;877;46.266;20.062;2023-07-28T03:51:51;14.90;82.40
1760;DHT22;877;46.266;20.062;2023-07-28T03:54:17;15.00;82.10
1760;DHT22;877;46.266;20.062;2023-07-28T03:56:43;14.90;82.30
1760;DHT22;877;46.266;20.062;2023-07-28T03:59:08;15.00;82.00
1760;DHT22;877;46.266;20.062;2023-07-28T04:01:34;15.10;82.00
1760;DHT22;877;46.266;20.062;2023-07-28T04:04:00;15.00;82.40
1760;DHT22;877;46.266;20.062;2023-07-28T04:06:48;15.10;82.60
1760;DHT22;877;46.266;20.062;2023-07-28T04:09:19;15.10;82.70
1760;DHT22;877;46.266;20.062;2023-07-28T04:11:45;15.20;82.50
1760;DHT22;877;46.266;20.062;2023-07-28T04:14:11;15.20;82.50
1760;DHT22;877;46.266;20.062;2023-07-28T04:16:38;15.20;82.70
1760;DHT22;877;46.266;20.062;2023-07-28T04:19:05;15.30;82.70
1760;DHT22;877;46.266;20.062;2023-07-28T04:21:30;15.30;82.30
1760;DHT22;877;46.266;20.062;2023-07-28T04:23:56;15.50;81.40
1760;DHT22;877;46.266;20.062;2023-07-28T04:26:23;15.60;81.20
1760;DHT22;877;46.266;20.062;2023-07-28T04:28:49;15.60;80.70
1760;DHT22;877;46.266;20.062;2023-07-28T04:31:15;15.70;80.50
1760;DHT22;877;46.266;20.062;2023-07-28T04:33:41;15.70;80.30
1760;DHT22;877;46.266;20.062;2023-07-28T04:36:07;15.80;80.20
1760;DHT22;877;46.266;20.062;2023-07-28T04:38:33;15.80;79.90
1760;DHT22;877;46.266;20.062;2023-07-28T04:40:59;15.90;79.90
1760;DHT22;877;46.266;20.062;2023-07-28T04:43:25;16.00;79.40
1760;DHT22;877;46.266;20.062;2023-07-28T04:45:51;15.90;79.40
1760;DHT22;877;46.266;20.062;2023-07-28T04:48:17;16.10;79.20
1760;DHT22;877;46.266;20.062;2023-07-28T04:50:43;16.10;78.90
1760;DHT22;877;46.266;20.062;2023-07-28T04:53:09;16.10;78.60
1760;DHT22;877;46.266;20.062;2023-07-28T04:55:35;16.20;79.00
1760;DHT22;877;46.266;20.062;2023-07-28T04:58:01;16.20;79.30
1760;DHT22;877;46.266;20.062;2023-07-28T05:00:27;16.20;79.10
1760;DHT22;877;46.266;20.062;2023-07-28T05:02:53;16.30;79.20
1760;DHT22;877;46.266;20.062;2023-07-28T05:05:18;16.50;78.80
1760;DHT22;877;46.266;20.062;2023-07-28T05:07:44;16.60;78.60
1760;DHT22;877;46.266;20.062;2023-07-28T05:10:10;16.70;77.80
1760;DHT22;877;46.266;20.062;2023-07-28T05:12:37;16.80;77.70
1760;DHT22;877;46.266;20.062;2023-07-28T05:15:04;16.80;77.00
1760;DHT22;877;46.266;20.062;2023-07-28T05:17:30;16.90;77.00
1760;DHT22;877;46.266;20.062;2023-07-28T05:19:55;17.00;77.00
1760;DHT22;877;46.266;20.062;2023-07-28T05:22:21;17.20;76.30
1760;DHT22;877;46.266;20.062;2023-07-28T05:24:47;17.30;75.90
1760;DHT22;877;46.266;20.062;2023-07-28T05:27:13;17.40;75.10
1760;DHT22;877;46.266;20.062;2023-07-28T05:29:39;17.50;74.80
1760;DHT22;877;46.266;20.062;2023-07-28T05:32:05;17.60;74.40
1760;DHT22;877;46.266;20.062;2023-07-28T05:34:31;17.70;72.80
1760;DHT22;877;46.266;20.062;2023-07-28T05:36:57;17.90;73.20
1760;DHT22;877;46.266;20.062;2023-07-28T05:39:23;18.00;72.70
1760;DHT22;877;46.266;20.062;2023-07-28T05:41:49;18.10;72.80
1760;DHT22;877;46.266;20.062;2023-07-28T05:44:15;18.30;72.50
1760;DHT22;877;46.266;20.062;2023-07-28T05:46:40;18.50;71.40
1760;DHT22;877;46.266;20.062;2023-07-28T05:49:06;18.60;71.20
1760;DHT22;877;46.266;20.062;2023-07-28T05:51:32;18.70;68.80
1760;DHT22;877;46.266;20.062;2023-07-28T05:53:58;18.80;67.60
1760;DHT22;877;46.266;20.062;2023-07-28T05:56:24;19.00;66.80
1760;DHT22;877;46.266;20.062;2023-07-28T05:58:50;19.10;67.00
1760;DHT22;877;46.266;20.062;2023-07-28T06:01:17;19.20;66.80
1760;DHT22;877;46.266;20.062;2023-07-28T06:03:43;19.40;66.80
1760;DHT22;877;46.266;20.062;2023-07-28T06:06:09;19.60;67.10
1760;DHT22;877;46.266;20.062;2023-07-28T06:08:35;19.70;66.50
1760;DHT22;877;46.266;20.062;2023-07-28T06:11:04;19.80;63.90
1760;DHT22;877;46.266;20.062;2023-07-28T06:13:31;20.00;64.30
1760;DHT22;877;46.266;20.062;2023-07-28T06:15:57;20.10;64.10
1760;DHT22;877;46.266;20.062;2023-07-28T06:18:24;20.30;62.90
1760;DHT22;877;46.266;20.062;2023-07-28T06:20:50;20.40;60.50
1760;DHT22;877;46.266;20.062;2023-07-28T06:23:16;20.40;61.70
1760;DHT22;877;46.266;20.062;2023-07-28T06:25:41;20.50;61.70
1760;DHT22;877;46.266;20.062;2023-07-28T06:28:10;20.80;60.80
1760;DHT22;877;46.266;20.062;2023-07-28T06:30:37;20.90;59.60
1760;DHT22;877;46.266;20.062;2023-07-28T06:33:05;20.90;60.10
1760;DHT22;877;46.266;20.062;2023-07-28T06:35:31;21.00;58.30
1760;DHT22;877;46.266;20.062;2023-07-28T06:37:57;21.10;59.00
1760;DHT22;877;46.266;20.062;2023-07-28T06:40:22;21.20;58.90
1760;DHT22;877;46.266;20.062;2023-07-28T06:42:48;21.30;58.30
1760;DHT22;877;46.266;20.062;2023-07-28T06:45:14;21.50;57.60
1760;DHT22;877;46.266;20.062;2023-07-28T06:47:41;21.70;55.40
1760;DHT22;877;46.266;20.062;2023-07-28T06:50:07;21.70;55.20
1760;DHT22;877;46.266;20.062;2023-07-28T06:52:33;22.00;54.80
1760;DHT22;877;46.266;20.062;2023-07-28T06:54:58;22.10;53.70
1760;DHT22;877;46.266;20.062;2023-07-28T06:57:24;22.00;54.00
1760;DHT22;877;46.266;20.062;2023-07-28T06:59:50;22.10;54.60
1760;DHT22;877;46.266;20.062;2023-07-28T07:02:16;22.40;52.70
1760;DHT22;877;46.266;20.062;2023-07-28T07:04:43;22.50;52.10
1760;DHT22;877;46.266;20.062;2023-07-28T07:07:09;22.80;53.10
1760;DHT22;877;46.266;20.062;2023-07-28T07:09:35;23.30;50.90
1760;DHT22;877;46.266;20.062;2023-07-28T07:12:04;23.40;51.00
1760;DHT22;877;46.266;20.062;2023-07-28T07:14:31;23.80;49.20
1760;DHT22;877;46.266;20.062;2023-07-28T07:16:57;23.90;49.00
1760;DHT22;877;46.266;20.062;2023-07-28T07:19:22;23.50;48.70
1760;DHT22;877;46.266;20.062;2023-07-28T07:21:49;23.50;47.80
1760;DHT22;877;46.266;20.062;2023-07-28T07:24:16;24.00;47.30
1760;DHT22;877;46.266;20.062;2023-07-28T07:26:42;23.90;48.10
1760;DHT22;877;46.266;20.062;2023-07-28T07:29:08;24.00;47.10
1760;DHT22;877;46.266;20.062;2023-07-28T07:31:35;23.50;48.40
1760;DHT22;877;46.266;20.062;2023-07-28T07:34:00;23.40;48.80
1760;DHT22;877;46.266;20.062;2023-07-28T07:36:26;24.20;47.70
1760;DHT22;877;46.266;20.062;2023-07-28T07:38:52;24.30;48.90
1760;DHT22;877;46.266;20.062;2023-07-28T07:41:18;25.10;46.10
1760;DHT22;877;46.266;20.062;2023-07-28T07:43:48;25.20;44.90
1760;DHT22;877;46.266;20.062;2023-07-28T07:46:17;24.80;46.30
1760;DHT22;877;46.266;20.062;2023-07-28T07:48:45;25.50;45.30
1760;DHT22;877;46.266;20.062;2023-07-28T07:51:10;24.90;46.60
1760;DHT22;877;46.266;20.062;2023-07-28T07:53:36;25.20;46.40
1760;DHT22;877;46.266;20.062;2023-07-28T07:56:06;26.10;42.80
1760;DHT22;877;46.266;20.062;2023-07-28T07:58:33;25.60;44.20
1760;DHT22;877;46.266;20.062;2023-07-28T08:00:59;26.30;43.80
1760;DHT22;877;46.266;20.062;2023-07-28T08:03:25;26.00;42.80
1760;DHT22;877;46.266;20.062;2023-07-28T08:05:52;25.90;43.70
1760;DHT22;877;46.266;20.062;2023-07-28T08:08:19;25.90;43.20
1760;DHT22;877;46.266;20.062;2023-07-28T08:10:46;25.80;41.70
1760;DHT22;877;46.266;20.062;2023-07-28T08:13:13;26.40;41.30
1760;DHT22;877;46.266;20.062;2023-07-28T08:15:39;26.90;40.50
1760;DHT22;877;46.266;20.062;2023-07-28T08:18:05;26.30;41.70
1760;DHT22;877;46.266;20.062;2023-07-28T08:20:31;26.10;42.60
1760;DHT22;877;46.266;20.062;2023-07-28T08:22:57;26.50;41.30
1760;DHT22;877;46.266;20.062;2023-07-28T08:25:22;26.20;40.90
1760;DHT22;877;46.266;20.062;2023-07-28T08:27:50;26.80;40.30
1760;DHT22;877;46.266;20.062;2023-07-28T08:30:15;26.90;41.00
1760;DHT22;877;46.266;20.062;2023-07-28T08:32:42;27.10;40.70
1760;DHT22;877;46.266;20.062;2023-07-28T08:35:08;26.50;41.00
1760;DHT22;877;46.266;20.062;2023-07-28T08:37:34;27.20;41.10
1760;DHT22;877;46.266;20.062;2023-07-28T08:40:00;27.40;38.70
1760;DHT22;877;46.266;20.062;2023-07-28T08:42:29;27.90;37.40
1760;DHT22;877;46.266;20.062;2023-07-28T08:44:55;27.90;38.40
1760;DHT22;877;46.266;20.062;2023-07-28T08:47:21;26.90;38.70
1760;DHT22;877;46.266;20.062;2023-07-28T08:49:47;26.70;39.40
1760;DHT22;877;46.266;20.062;2023-07-28T08:52:16;27.10;37.80
1760;DHT22;877;46.266;20.062;2023-07-28T08:54:43;27.20;38.70
1760;DHT22;877;46.266;20.062;2023-07-28T08:57:12;27.00;37.50
1760;DHT22;877;46.266;20.062;2023-07-28T08:59:38;26.90;38.40
1760;DHT22;877;46.266;20.062;2023-07-28T09:02:09;27.30;37.70
1760;DHT22;877;46.266;20.062;2023-07-28T09:04:36;27.70;37.30
1760;DHT22;877;46.266;20.062;2023-07-28T09:07:04;27.50;37.10
1760;DHT22;877;46.266;20.062;2023-07-28T09:09:32;27.10;37.60
1760;DHT22;877;46.266;20.062;2023-07-28T09:11:59;28.00;36.40
1760;DHT22;877;46.266;20.062;2023-07-28T09:14:26;28.40;36.60
1760;DHT22;877;46.266;20.062;2023-07-28T09:16:53;28.20;37.20
1760;DHT22;877;46.266;20.062;2023-07-28T09:19:20;28.30;36.40
1760;DHT22;877;46.266;20.062;2023-07-28T09:21:59;29.00;35.70
1760;DHT22;877;46.266;20.062;2023-07-28T09:24:32;29.10;35.60
1760;DHT22;877;46.266;20.062;2023-07-28T09:26:59;30.00;33.90
1760;DHT22;877;46.266;20.062;2023-07-28T09:29:25;30.30;34.10
1760;DHT22;877;46.266;20.062;2023-07-28T09:31:54;28.80;34.60
1760;DHT22;877;46.266;20.062;2023-07-28T09:34:28;29.60;34.80
1760;DHT22;877;46.266;20.062;2023-07-28T09:36:55;29.10;35.50
1760;DHT22;877;46.266;20.062;2023-07-28T09:39:22;29.90;34.60
1760;DHT22;877;46.266;20.062;2023-07-28T09:41:48;28.30;35.90
1760;DHT22;877;46.266;20.062;2023-07-28T09:44:14;29.00;35.30
1760;DHT22;877;46.266;20.062;2023-07-28T09:49:20;29.40;34.40
1760;DHT22;877;46.266;20.062;2023-07-28T09:51:48;29.50;34.60
1760;DHT22;877;46.266;20.062;2023-07-28T09:54:24;29.10;34.10
1760;DHT22;877;46.266;20.062;2023-07-28T09:56:55;29.40;34.30
1760;DHT22;877;46.266;20.062;2023-07-28T09:59:46;28.70;35.20
1760;DHT22;877;46.266;20.062;2023-07-28T10:02:10;29.60;35.00
1760;DHT22;877;46.266;20.062;2023-07-28T10:04:36;30.10;33.60
1760;DHT22;877;46.266;20.062;2023-07-28T10:07:04;29.80;34.00
1760;DHT22;877;46.266;20.062;2023-07-28T10:09:30;29.90;33.80
1760;DHT22;877;46.266;20.062;2023-07-28T10:11:59;29.70;34.50
1760;DHT22;877;46.266;20.062;2023-07-28T10:14:27;29.40;34.20
1760;DHT22;877;46.266;20.062;2023-07-28T10:16:54;29.20;34.70
1760;DHT22;877;46.266;20.062;2023-07-28T10:19:20;28.80;35.00
1760;DHT22;877;46.266;20.062;2023-07-28T10:21:47;29.10;35.90
1760;DHT22;877;46.266;20.062;2023-07-28T10:24:13;29.70;34.10
1760;DHT22;877;46.266;20.062;2023-07-28T10:26:41;29.00;35.60
1760;DHT22;877;46.266;20.062;2023-07-28T10:29:13;29.40;35.10
1760;DHT22;877;46.266;20.062;2023-07-28T10:31:54;29.80;34.20
1760;DHT22;877;46.266;20.062;2023-07-28T10:34:22;29.50;35.00
1760;DHT22;877;46.266;20.062;2023-07-28T10:36:57;29.50;34.60
1760;DHT22;877;46.266;20.062;2023-07-28T10:39:24;29.80;34.60
1760;DHT22;877;46.266;20.062;2023-07-28T10:42:07;30.00;34.30
1760;DHT22;877;46.266;20.062;2023-07-28T10:44:34;30.10;34.00
1760;DHT22;877;46.266;20.062;2023-07-28T10:47:00;29.00;36.70
1760;DHT22;877;46.266;20.062;2023-07-28T10:49:27;29.70;36.10
1760;DHT22;877;46.266;20.062;2023-07-28T10:51:53;29.60;35.60
1760;DHT22;877;46.266;20.062;2023-07-28T10:54:19;29.60;35.90
1760;DHT22;877;46.266;20.062;2023-07-28T10:56:48;30.00;36.60
1760;DHT22;877;46.266;20.062;2023-07-28T10:59:14;29.80;35.40
1760;DHT22;877;46.266;20.062;2023-07-28T11:01:41;29.50;34.30
1760;DHT22;877;46.266;20.062;2023-07-28T11:06:42;29.50;35.00
1760;DHT22;877;46.266;20.062;2023-07-28T11:09:08;29.70;35.30
1760;DHT22;877;46.266;20.062;2023-07-28T11:11:36;29.00;36.80
1760;DHT22;877;46.266;20.062;2023-07-28T11:14:06;29.50;35.70
1760;DHT22;877;46.266;20.062;2023-07-28T11:16:35;29.20;35.80
1760;DHT22;877;46.266;20.062;2023-07-28T11:19:08;29.50;36.30
1760;DHT22;877;46.266;20.062;2023-07-28T11:21:39;28.90;37.40
1760;DHT22;877;46.266;20.062;2023-07-28T11:24:17;29.80;36.10
1760;DHT22;877;46.266;20.062;2023-07-28T11:26:44;30.10;34.70
1760;DHT22;877;46.266;20.062;2023-07-28T11:29:11;30.00;34.60
1760;DHT22;877;46.266;20.062;2023-07-28T11:31:37;29.80;35.40
1760;DHT22;877;46.266;20.062;2023-07-28T11:34:13;29.60;35.90
1760;DHT22;877;46.266;20.062;2023-07-28T11:36:40;29.80;36.00
1760;DHT22;877;46.266;20.062;2023-07-28T11:39:06;29.80;35.50
1760;DHT22;877;46.266;20.062;2023-07-28T11:41:33;30.20;34.20
1760;DHT22;877;46.266;20.062;2023-07-28T11:44:00;30.10;34.80
1760;DHT22;877;46.266;20.062;2023-07-28T11:46:41;30.10;34.30
1760;DHT22;877;46.266;20.062;2023-07-28T11:49:17;30.40;34.90
1760;DHT22;877;46.266;20.062;2023-07-28T11:51:51;30.60;33.80
1760;DHT22;877;46.266;20.062;2023-07-28T11:54:20;30.40;33.60
1760;DHT22;877;46.266;20.062;2023-07-28T11:56:48;30.20;33.90
1760;DHT22;877;46.266;20.062;2023-07-28T11:59:19;30.40;33.30
1760;DHT22;877;46.266;20.062;2023-07-28T12:01:55;30.50;34.30
1760;DHT22;877;46.266;20.062;2023-07-28T12:04:26;30.80;32.90
1760;DHT22;877;46.266;20.062;2023-07-28T12:07:07;30.30;33.50
1760;DHT22;877;46.266;20.062;2023-07-28T12:09:48;30.30;33.70
1760;DHT22;877;46.266;20.062;2023-07-28T12:12:15;30.30;33.80
1760;DHT22;877;46.266;20.062;2023-07-28T12:14:42;30.90;33.10
1760;DHT22;877;46.266;20.062;2023-07-28T12:17:16;30.80;33.90
1760;DHT22;877;46.266;20.062;2023-07-28T12:22:30;30.60;33.70
1760;DHT22;877;46.266;20.062;2023-07-28T12:24:57;30.90;32.90
1760;DHT22;877;46.266;20.062;2023-07-28T12:27:23;30.60;33.70
1760;DHT22;877;46.266;20.062;2023-07-28T12:29:50;30.50;33.80
1760;DHT22;877;46.266;20.062;2023-07-28T12:32:17;30.70;34.10
1760;DHT22;877;46.266;20.062;2023-07-28T12:34:42;30.70;33.90
1760;DHT22;877;46.266;20.062;2023-07-28T12:37:08;30.30;33.30
1760;DHT22;877;46.266;20.062;2023-07-28T12:39:38;30.40;32.90
1760;DHT22;877;46.266;20.062;2023-07-28T12:42:06;30.50;32.80
1760;DHT22;877;46.266;20.062;2023-07-28T12:44:32;30.30;33.30
1760;DHT22;877;46.266;20.062;2023-07-28T12:46:58;30.50;33.60
1760;DHT22;877;46.266;20.062;2023-07-28T12:49:24;30.50;34.30
1760;DHT22;877;46.266;20.062;2023-07-28T12:51:50;30.50;33.10
1760;DHT22;877;46.266;20.062;2023-07-28T12:54:15;30.70;34.10
1760;DHT22;877;46.266;20.062;2023-07-28T12:56:42;30.80;33.20
1760;DHT22;877;46.266;20.062;2023-07-28T12:59:08;31.00;33.00
1760;DHT22;877;46.266;20.062;2023-07-28T13:01:37;31.00;32.50
1760;DHT22;877;46.266;20.062;2023-07-28T13:04:03;31.10;33.40
1760;DHT22;877;46.266;20.062;2023-07-28T13:06:28;31.60;33.20
1760;DHT22;877;46.266;20.062;2023-07-28T13:08:54;31.40;33.30
1760;DHT22;877;46.266;20.062;2023-07-28T13:11:20;31.10;33.00
1760;DHT22;877;46.266;20.062;2023-07-28T13:13:46;31.10;32.90
1760;DHT22;877;46.266;20.062;2023-07-28T13:16:11;31.10;32.60
1760;DHT22;877;46.266;20.062;2023-07-28T13:18:37;31.20;32.60
1760;DHT22;877;46.266;20.062;2023-07-28T13:21:05;31.50;32.60
1760;DHT22;877;46.266;20.062;2023-07-28T13:23:32;31.10;32.80
1760;DHT22;877;46.266;20.062;2023-07-28T13:25:58;31.00;32.90
1760;DHT22;877;46.266;20.062;2023-07-28T13:28:23;31.40;32.90
1760;DHT22;877;46.266;20.062;2023-07-28T13:30:51;31.20;33.30
1760;DHT22;877;46.266;20.062;2023-07-28T13:33:17;31.60;33.10
1760;DHT22;877;46.266;20.062;2023-07-28T13:35:43;31.30;32.90
1760;DHT22;877;46.266;20.062;2023-07-28T13:38:08;31.50;32.90
1760;DHT22;877;46.266;20.062;2023-07-28T13:40:35;31.00;33.20
1760;DHT22;877;46.266;20.062;2023-07-28T13:43:01;31.50;32.90
1760;DHT22;877;46.266;20.062;2023-07-28T13:45:27;31.40;32.50
1760;DHT22;877;46.266;20.062;2023-07-28T13:47:52;31.40;33.10
1760;DHT22;877;46.266;20.062;2023-07-28T13:50:18;31.80;32.50
1760;DHT22;877;46.266;20.062;2023-07-28T13:52:44;31.90;31.60
1760;DHT22;877;46.266;20.062;2023-07-28T13:55:10;31.70;31.80
1760;DHT22;877;46.266;20.062;2023-07-28T13:57:36;31.90;32.10
1760;DHT22;877;46.266;20.062;2023-07-28T14:00:02;32.00;33.00
1760;DHT22;877;46.266;20.062;2023-07-28T14:02:28;31.40;32.90
1760;DHT22;877;46.266;20.062;2023-07-28T14:04:54;32.00;33.00
1760;DHT22;877;46.266;20.062;2023-07-28T14:07:20;32.10;32.20
1760;DHT22;877;46.266;20.062;2023-07-28T14:09:46;31.70;32.50
1760;DHT22;877;46.266;20.062;2023-07-28T14:12:11;32.00;32.00
1760;DHT22;877;46.266;20.062;2023-07-28T14:14:37;31.80;32.40
1760;DHT22;877;46.266;20.062;2023-07-28T14:17:03;32.10;32.20
1760;DHT22;877;46.266;20.062;2023-07-28T14:19:29;32.30;32.20
1760;DHT22;877;46.266;20.062;2023-07-28T14:21:55;32.40;32.70
1760;DHT22;877;46.266;20.062;2023-07-28T14:24:21;32.50;32.50
1760;DHT22;877;46.266;20.062;2023-07-28T14:26:47;32.90;32.30
1760;DHT22;877;46.266;20.062;2023-07-28T14:29:12;32.80;32.10
1760;DHT22;877;46.266;20.062;2023-07-28T14:31:38;33.20;32.00
1760;DHT22;877;46.266;20.062;2023-07-28T14:34:04;32.60;32.50
1760;DHT22;877;46.266;20.062;2023-07-28T14:36:31;32.00;33.10
1760;DHT22;877;46.266;20.062;2023-07-28T14:38:56;31.80;33.70
1760;DHT22;877;46.266;20.062;2023-07-28T14:41:23;32.30;33.40
1760;DHT22;877;46.266;20.062;2023-07-28T14:43:50;32.00;33.20
1760;DHT22;877;46.266;20.062;2023-07-28T14:46:17;32.40;32.90
1760;DHT22;877;46.266;20.062;2023-07-28T14:48:43;32.80;32.10
1760;DHT22;877;46.266;20.062;2023-07-28T14:51:08;33.10;31.80
1760;DHT22;877;46.266;20.062;2023-07-28T14:53:37;32.90;32.50
1760;DHT22;877;46.266;20.062;2023-07-28T14:56:04;32.70;33.20
1760;DHT22;877;46.266;20.062;2023-07-28T14:58:30;33.40;32.60
1760;DHT22;877;46.266;20.062;2023-07-28T15:00:57;32.90;33.30
1760;DHT22;877;46.266;20.062;2023-07-28T15:03:25;33.10;32.70
1760;DHT22;877;46.266;20.062;2023-07-28T15:05:51;33.20;33.30
1760;DHT22;877;46.266;20.062;2023-07-28T15:08:17;33.60;32.30
1760;DHT22;877;46.266;20.062;2023-07-28T15:10:43;33.40;32.90
1760;DHT22;877;46.266;20.062;2023-07-28T15:13:10;34.00;32.60
1760;DHT22;877;46.266;20.062;2023-07-28T15:15:36;33.20;33.00
1760;DHT22;877;46.266;20.062;2023-07-28T15:18:02;33.10;33.60
1760;DHT22;877;46.266;20.062;2023-07-28T15:20:28;33.40;32.90
1760;DHT22;877;46.266;20.062;2023-07-28T15:22:54;33.50;32.80
1760;DHT22;877;46.266;20.062;2023-07-28T15:25:26;32.80;33.50
1760;DHT22;877;46.266;20.062;2023-07-28T15:27:52;33.40;33.10
1760;DHT22;877;46.266;20.062;2023-07-28T15:30:18;33.60;33.00
1760;DHT22;877;46.266;20.062;2023-07-28T15:32:43;32.90;33.70
1760;DHT22;877;46.266;20.062;2023-07-28T15:35:09;33.20;33.60
1760;DHT22;877;46.266;20.062;2023-07-28T15:37:36;33.40;33.80
1760;DHT22;877;46.266;20.062;2023-07-28T15:40:05;32.70;33.90
1760;DHT22;877;46.266;20.062;2023-07-28T15:42:31;33.10;33.50
1760;DHT22;877;46.266;20.062;2023-07-28T15:44:57;33.40;33.30
1760;DHT22;877;46.266;20.062;2023-07-28T15:47:23;33.10;32.90
1760;DHT22;877;46.266;20.062;2023-07-28T15:49:48;33.30;32.90
1760;DHT22;877;46.266;20.062;2023-07-28T15:52:19;32.70;33.20
1760;DHT22;877;46.266;20.062;2023-07-28T15:54:45;33.30;32.90
1760;DHT22;877;46.266;20.062;2023-07-28T15:57:10;33.00;33.60
1760;DHT22;877;46.266;20.062;2023-07-28T15:59:36;33.00;33.70
1760;DHT22;877;46.266;20.062;2023-07-28T16:02:04;33.20;33.50
1760;DHT22;877;46.266;20.062;2023-07-28T16:04:31;33.10;34.40
1760;DHT22;877;46.266;20.062;2023-07-28T16:06:56;33.20;33.60
1760;DHT22;877;46.266;20.062;2023-07-28T16:09:22;33.80;32.90
1760;DHT22;877;46.266;20.062;2023-07-28T16:11:48;33.60;33.40
1760;DHT22;877;46.266;20.062;2023-07-28T16:14:14;34.00;32.80